sensor_id;sensor_type;location;lat;lon;timestamp;pressure;altitude;pressure_sealevel;temperature;humidity
63190;BME280;49286;44.460;26.114;2023-02-22T00:01:17;100198.28;;;8.68;100.00
63190;BME280;49286;44.460;26.114;2023-02-22T00:03:50;100178.25;;;8.72;100.00
63190;BME280;49286;44.460;26.114;2023-02-22T00:06:18;100221.97;;;9.09;100.00
63190;BME280;49286;44.460;26.114;2023-02-22T00:08:46;100237.69;;;9.13;100.00
63190;BME280;49286;44.460;26.114;2023-02-22T00:11:13;100110.16;;;8.41;100.00
63190;BME280;49286;44.460;26.114;2023-02-22T00:13:39;100218.44;;;8.98;100.00
63190;BME280;49286;44.460;26.114;2023-02-22T00:16:08;100148.53;;;8.56;100.00
63190;BME280;49286;44.460;26.114;2023-02-22T00:18:37;100091.72;;;8.22;100.00
63190;BME280;49286;44.460;26.114;2023-02-22T00:21:02;100050.66;;;7.89;100.00
63190;BME280;49286;44.460;26.114;2023-02-22T00:23:29;100218.34;;;8.75;100.00
63190;BME280;49286;44.460;26.114;2023-02-22T00:25:57;100231.16;;;8.24;100.00
63190;BME280;49286;44.460;26.114;2023-02-22T00:28:24;100103.72;;;7.83;100.00
63190;BME280;49286;44.460;26.114;2023-02-22T00:30:51;100103.75;;;7.88;100.00
63190;BME280;49286;44.460;26.114;2023-02-22T00:33:16;100124.72;;;7.99;100.00
63190;BME280;49286;44.460;26.114;2023-02-22T00:35:43;100233.19;;;8.69;100.00
63190;BME280;49286;44.460;26.114;2023-02-22T00:38:14;100118.66;;;8.08;100.00
63190;BME280;49286;44.460;26.114;2023-02-22T00:40:40;100198.19;;;8.50;100.00
63190;BME280;49286;44.460;26.114;2023-02-22T00:43:06;100218.34;;;8.72;100.00
63190;BME280;49286;44.460;26.114;2023-02-22T00:45:33;100096.84;;;7.96;100.00
63190;BME280;49286;44.460;26.114;2023-02-22T00:48:00;100197.31;;;8.49;100.00
63190;BME280;49286;44.460;26.114;2023-02-22T00:50:27;100099.41;;;7.87;100.00
63190;BME280;49286;44.460;26.114;2023-02-22T00:52:55;100105.41;;;7.77;100.00
63190;BME280;49286;44.460;26.114;2023-02-22T00:55:27;100225.25;;;8.55;100.00
63190;BME280;49286;44.460;26.114;2023-02-22T00:57:53;100096.72;;;7.81;100.00
63190;BME280;49286;44.460;26.114;2023-02-22T01:00:27;100223.47;;;8.49;100.00
63190;BME280;49286;44.460;26.114;2023-02-22T01:02:53;100213.81;;;8.40;100.00
63190;BME280;49286;44.460;26.114;2023-02-22T01:05:23;100123.75;;;7.83;100.00
63190;BME280;49286;44.460;26.114;2023-02-22T01:07:49;100075.66;;;7.53;100.00
63190;BME280;49286;44.460;26.114;2023-02-22T01:10:17;100190.13;;;8.14;100.00
63190;BME280;49286;44.460;26.114;2023-02-22T01:12:44;100143.84;;;7.92;100.00
63190;BME280;49286;44.460;26.114;2023-02-22T01:15:10;100064.16;;;7.27;100.00
63190;BME280;49286;44.460;26.114;2023-02-22T01:17:37;100177.03;;;8.08;100.00
63190;BME280;49286;44.460;26.114;2023-02-22T01:20:05;100075.53;;;7.35;100.00
63190;BME280;49286;44.460;26.114;2023-02-22T01:22:41;100074.38;;;7.02;100.00
63190;BME280;49286;44.460;26.114;2023-02-22T01:25:08;100058.94;;;6.33;100.00
63190;BME280;49286;44.460;26.114;2023-02-22T01:27:34;100085.16;;;6.50;100.00
63190;BME280;49286;44.460;26.114;2023-02-22T01:30:00;100180.47;;;7.00;100.00
63190;BME280;49286;44.460;26.114;2023-02-22T01:32:26;100135.84;;;6.75;100.00
63190;BME280;49286;44.460;26.114;2023-02-22T01:34:54;100157.25;;;7.26;100.00
63190;BME280;49286;44.460;26.114;2023-02-22T01:37:20;100204.44;;;7.51;100.00
63190;BME280;49286;44.460;26.114;2023-02-22T01:39:46;100198.91;;;7.17;100.00
63190;BME280;49286;44.460;26.114;2023-02-22T01:42:11;100134.22;;;6.84;100.00
63190;BME280;49286;44.460;26.114;2023-02-22T01:44:38;100106.31;;;6.78;100.00
63190;BME280;49286;44.460;26.114;2023-02-22T01:47:06;100115.00;;;6.75;100.00
63190;BME280;49286;44.460;26.114;2023-02-22T01:49:47;100187.50;;;7.07;100.00
63190;BME280;49286;44.460;26.114;2023-02-22T01:52:19;100191.16;;;7.28;100.00
63190;BME280;49286;44.460;26.114;2023-02-22T01:54:50;100080.91;;;6.57;100.00
63190;BME280;49286;44.460;26.114;2023-02-22T01:57:21;100037.34;;;6.48;100.00
63190;BME280;49286;44.460;26.114;2023-02-22T01:59:53;100210.28;;;7.24;100.00
63190;BME280;49286;44.460;26.114;2023-02-22T02:02:21;100167.63;;;7.20;100.00
63190;BME280;49286;44.460;26.114;2023-02-22T02:04:50;100113.47;;;6.96;100.00
63190;BME280;49286;44.460;26.114;2023-02-22T02:07:19;100045.31;;;6.62;100.00
63190;BME280;49286;44.460;26.114;2023-02-22T02:09:51;100227.91;;;7.45;100.00
63190;BME280;49286;44.460;26.114;2023-02-22T02:12:19;100076.72;;;6.73;100.00
63190;BME280;49286;44.460;26.114;2023-02-22T02:14:47;100093.28;;;6.78;100.00
63190;BME280;49286;44.460;26.114;2023-02-22T02:17:15;100213.22;;;7.59;100.00
63190;BME280;49286;44.460;26.114;2023-02-22T02:30:53;100202.91;;;6.87;100.00
63190;BME280;49286;44.460;26.114;2023-02-22T02:34:14;100111.22;;;6.47;100.00
63190;BME280;49286;44.460;26.114;2023-02-22T02:41:52;100102.22;;;6.22;100.00
63190;BME280;49286;44.460;26.114;2023-02-22T02:44:35;100240.69;;;7.20;100.00
63190;BME280;49286;44.460;26.114;2023-02-22T02:49:46;100210.97;;;7.09;100.00
63190;BME280;49286;44.460;26.114;2023-02-22T02:52:15;100125.13;;;6.49;100.00
63190;BME280;49286;44.460;26.114;2023-02-22T02:54:43;100208.84;;;6.74;100.00
63190;BME280;49286;44.460;26.114;2023-02-22T02:57:10;100090.22;;;6.37;100.00
63190;BME280;49286;44.460;26.114;2023-02-22T02:59:36;100183.78;;;6.84;100.00
63190;BME280;49286;44.460;26.114;2023-02-22T03:18:17;100261.66;;;7.29;100.00
63190;BME280;49286;44.460;26.114;2023-02-22T03:26:25;100119.84;;;6.42;100.00
63190;BME280;49286;44.460;26.114;2023-02-22T03:28:54;100232.91;;;7.25;100.00
63190;BME280;49286;44.460;26.114;2023-02-22T03:31:24;100259.84;;;7.22;100.00
63190;BME280;49286;44.460;26.114;2023-02-22T03:33:55;100124.19;;;6.43;100.00
63190;BME280;49286;44.460;26.114;2023-02-22T03:36:34;100126.94;;;6.53;100.00
63190;BME280;49286;44.460;26.114;2023-02-22T03:39:06;100172.25;;;6.66;100.00
63190;BME280;49286;44.460;26.114;2023-02-22T03:41:35;100121.28;;;6.18;100.00
63190;BME280;49286;44.460;26.114;2023-02-22T03:44:08;100257.59;;;6.81;100.00
63190;BME280;49286;44.460;26.114;2023-02-22T03:46:37;100141.47;;;6.36;100.00
63190;BME280;49286;44.460;26.114;2023-02-22T03:49:09;100278.41;;;6.75;100.00
63190;BME280;49286;44.460;26.114;2023-02-22T03:51:36;100126.91;;;5.88;100.00
63190;BME280;49286;44.460;26.114;2023-02-22T03:54:04;100175.53;;;6.50;100.00
63190;BME280;49286;44.460;26.114;2023-02-22T03:56:35;100163.34;;;6.47;100.00
63190;BME280;49286;44.460;26.114;2023-02-22T03:59:06;100137.88;;;6.26;100.00
63190;BME280;49286;44.460;26.114;2023-02-22T04:01:33;100263.97;;;7.03;100.00
63190;BME280;49286;44.460;26.114;2023-02-22T04:03:59;100273.75;;;7.23;100.00
63190;BME280;49286;44.460;26.114;2023-02-22T04:06:25;100145.06;;;6.44;100.00
63190;BME280;49286;44.460;26.114;2023-02-22T04:08:51;100129.31;;;6.35;100.00
63190;BME280;49286;44.460;26.114;2023-02-22T04:11:16;100274.38;;;7.00;100.00
63190;BME280;49286;44.460;26.114;2023-02-22T04:13:42;100132.25;;;5.96;100.00
63190;BME280;49286;44.460;26.114;2023-02-22T04:16:07;100245.56;;;6.91;100.00
63190;BME280;49286;44.460;26.114;2023-02-22T04:18:33;100230.78;;;6.91;100.00
63190;BME280;49286;44.460;26.114;2023-02-22T04:20:58;100189.56;;;6.61;100.00
63190;BME280;49286;44.460;26.114;2023-02-22T04:23:23;100261.75;;;6.65;100.00
63190;BME280;49286;44.460;26.114;2023-02-22T04:25:49;100260.19;;;6.78;100.00
63190;BME280;49286;44.460;26.114;2023-02-22T04:28:15;100156.91;;;6.21;100.00
63190;BME280;49286;44.460;26.114;2023-02-22T04:30:40;100237.13;;;6.43;100.00
63190;BME280;49286;44.460;26.114;2023-02-22T04:33:08;100246.81;;;6.52;100.00
63190;BME280;49286;44.460;26.114;2023-02-22T04:35:35;100276.81;;;6.86;100.00
63190;BME280;49286;44.460;26.114;2023-02-22T04:38:00;100263.84;;;6.91;100.00
63190;BME280;49286;44.460;26.114;2023-02-22T04:40:26;100269.75;;;6.78;100.00
63190;BME280;49286;44.460;26.114;2023-02-22T04:42:52;100277.47;;;6.71;100.00
63190;BME280;49286;44.460;26.114;2023-02-22T04:45:17;100269.19;;;6.38;100.00
63190;BME280;49286;44.460;26.114;2023-02-22T04:47:43;100151.03;;;5.23;100.00
63190;BME280;49286;44.460;26.114;2023-02-22T04:50:10;100202.53;;;5.42;100.00
63190;BME280;49286;44.460;26.114;2023-02-22T04:52:36;100251.75;;;5.80;100.00
63190;BME280;49286;44.460;26.114;2023-02-22T04:55:01;100147.06;;;5.45;100.00
63190;BME280;49286;44.460;26.114;2023-02-22T04:57:28;100183.00;;;5.16;100.00
63190;BME280;49286;44.460;26.114;2023-02-22T04:59:53;100265.44;;;5.68;100.00
63190;BME280;49286;44.460;26.114;2023-02-22T05:02:19;100241.63;;;5.47;100.00
63190;BME280;49286;44.460;26.114;2023-02-22T05:04:45;100272.25;;;5.60;100.00
63190;BME280;49286;44.460;26.114;2023-02-22T05:07:10;100228.94;;;5.15;100.00
63190;BME280;49286;44.460;26.114;2023-02-22T05:09:36;100212.94;;;4.95;100.00
63190;BME280;49286;44.460;26.114;2023-02-22T05:12:01;100231.88;;;4.88;100.00
63190;BME280;49286;44.460;26.114;2023-02-22T05:14:27;100229.13;;;5.24;100.00
63190;BME280;49286;44.460;26.114;2023-02-22T05:16:54;100251.91;;;5.39;100.00
63190;BME280;49286;44.460;26.114;2023-02-22T05:19:20;100267.94;;;5.15;100.00
63190;BME280;49286;44.460;26.114;2023-02-22T05:21:46;100139.88;;;4.36;100.00
63190;BME280;49286;44.460;26.114;2023-02-22T05:24:11;100169.84;;;4.62;100.00
63190;BME280;49286;44.460;26.114;2023-02-22T05:26:37;100171.50;;;4.59;100.00
63190;BME280;49286;44.460;26.114;2023-02-22T05:29:03;100288.81;;;5.18;100.00
63190;BME280;49286;44.460;26.114;2023-02-22T05:31:28;100169.94;;;4.67;100.00
63190;BME280;49286;44.460;26.114;2023-02-22T05:33:53;100289.25;;;5.43;100.00
63190;BME280;49286;44.460;26.114;2023-02-22T05:36:19;100282.97;;;5.30;100.00
63190;BME280;49286;44.460;26.114;2023-02-22T05:38:44;100312.34;;;5.26;100.00
63190;BME280;49286;44.460;26.114;2023-02-22T05:41:11;100195.38;;;4.41;100.00
63190;BME280;49286;44.460;26.114;2023-02-22T05:43:38;100296.84;;;4.88;100.00
63190;BME280;49286;44.460;26.114;2023-02-22T05:46:03;100171.84;;;3.95;100.00
63190;BME280;49286;44.460;26.114;2023-02-22T05:48:29;100217.97;;;4.06;100.00
63190;BME280;49286;44.460;26.114;2023-02-22T05:50:56;100165.63;;;3.87;100.00
63190;BME280;49286;44.460;26.114;2023-02-22T05:53:21;100277.66;;;4.42;100.00
63190;BME280;49286;44.460;26.114;2023-02-22T05:55:48;100180.97;;;3.78;100.00
63190;BME280;49286;44.460;26.114;2023-02-22T05:58:14;100172.81;;;3.63;100.00
63190;BME280;49286;44.460;26.114;2023-02-22T06:00:39;100273.38;;;4.44;100.00
63190;BME280;49286;44.460;26.114;2023-02-22T06:03:07;100298.91;;;4.63;100.00
63190;BME280;49286;44.460;26.114;2023-02-22T06:05:34;100322.38;;;5.06;100.00
63190;BME280;49286;44.460;26.114;2023-02-22T06:08:00;100330.50;;;4.80;100.00
63190;BME280;49286;44.460;26.114;2023-02-22T06:10:27;100222.59;;;4.19;100.00
63190;BME280;49286;44.460;26.114;2023-02-22T06:12:53;100195.63;;;4.12;100.00
63190;BME280;49286;44.460;26.114;2023-02-22T06:15:20;100313.00;;;4.73;100.00
63190;BME280;49286;44.460;26.114;2023-02-22T06:17:46;100299.25;;;4.79;100.00
63190;BME280;49286;44.460;26.114;2023-02-22T06:20:13;100340.38;;;4.97;100.00
63190;BME280;49286;44.460;26.114;2023-02-22T06:22:39;100243.78;;;4.37;100.00
63190;BME280;49286;44.460;26.114;2023-02-22T06:25:13;100207.66;;;4.09;100.00
63190;BME280;49286;44.460;26.114;2023-02-22T06:27:39;100352.41;;;4.93;100.00
63190;BME280;49286;44.460;26.114;2023-02-22T06:30:05;100370.00;;;5.05;100.00
63190;BME280;49286;44.460;26.114;2023-02-22T06:32:31;100349.34;;;5.11;100.00
63190;BME280;49286;44.460;26.114;2023-02-22T06:34:56;100371.47;;;5.32;100.00
63190;BME280;49286;44.460;26.114;2023-02-22T06:37:22;100375.25;;;5.49;100.00
63190;BME280;49286;44.460;26.114;2023-02-22T06:39:47;100332.53;;;5.36;100.00
63190;BME280;49286;44.460;26.114;2023-02-22T06:42:14;100360.78;;;5.63;100.00
63190;BME280;49286;44.460;26.114;2023-02-22T06:44:39;100238.13;;;4.98;100.00
63190;BME280;49286;44.460;26.114;2023-02-22T06:47:05;100378.63;;;5.89;100.00
63190;BME280;49286;44.460;26.114;2023-02-22T06:49:30;100393.47;;;5.93;100.00
63190;BME280;49286;44.460;26.114;2023-02-22T06:51:56;100296.19;;;5.41;100.00
63190;BME280;49286;44.460;26.114;2023-02-22T06:54:22;100281.19;;;5.29;100.00
63190;BME280;49286;44.460;26.114;2023-02-22T06:56:47;100264.88;;;5.36;100.00
63190;BME280;49286;44.460;26.114;2023-02-22T06:59:14;100331.50;;;5.75;100.00
63190;BME280;49286;44.460;26.114;2023-02-22T07:01:40;100340.38;;;5.86;100.00
63190;BME280;49286;44.460;26.114;2023-02-22T07:04:06;100385.13;;;6.09;100.00
63190;BME280;49286;44.460;26.114;2023-02-22T07:06:32;100373.75;;;6.06;100.00
63190;BME280;49286;44.460;26.114;2023-02-22T07:08:57;100280.13;;;5.65;100.00
63190;BME280;49286;44.460;26.114;2023-02-22T07:11:23;100403.75;;;6.34;100.00
63190;BME280;49286;44.460;26.114;2023-02-22T07:13:49;100299.69;;;5.91;100.00
63190;BME280;49286;44.460;26.114;2023-02-22T07:16:15;100407.44;;;6.45;100.00
63190;BME280;49286;44.460;26.114;2023-02-22T07:18:40;100400.91;;;6.72;100.00
63190;BME280;49286;44.460;26.114;2023-02-22T07:21:05;100271.22;;;6.01;100.00
63190;BME280;49286;44.460;26.114;2023-02-22T07:23:31;100274.81;;;6.07;100.00
63190;BME280;49286;44.460;26.114;2023-02-22T07:26:01;100308.31;;;6.39;100.00
63190;BME280;49286;44.460;26.114;2023-02-22T07:28:27;100425.91;;;7.17;100.00
63190;BME280;49286;44.460;26.114;2023-02-22T07:30:52;100424.22;;;7.19;100.00
63190;BME280;49286;44.460;26.114;2023-02-22T07:33:18;100278.56;;;6.26;100.00
63190;BME280;49286;44.460;26.114;2023-02-22T07:35:46;100336.03;;;6.93;100.00
63190;BME280;49286;44.460;26.114;2023-02-22T07:38:13;100389.94;;;6.94;100.00
63190;BME280;49286;44.460;26.114;2023-02-22T07:40:40;100417.28;;;7.23;100.00
63190;BME280;49286;44.460;26.114;2023-02-22T07:43:25;100409.31;;;7.13;100.00
63190;BME280;49286;44.460;26.114;2023-02-22T07:45:54;100357.78;;;6.97;100.00
63190;BME280;49286;44.460;26.114;2023-02-22T07:48:21;100362.44;;;7.19;100.00
63190;BME280;49286;44.460;26.114;2023-02-22T07:50:48;100449.94;;;7.58;100.00
63190;BME280;49286;44.460;26.114;2023-02-22T07:53:19;100321.38;;;7.03;100.00
63190;BME280;49286;44.460;26.114;2023-02-22T07:55:45;100453.47;;;7.59;100.00
63190;BME280;49286;44.460;26.114;2023-02-22T07:58:17;100472.03;;;7.82;100.00
63190;BME280;49286;44.460;26.114;2023-02-22T08:00:43;100315.41;;;7.12;100.00
63190;BME280;49286;44.460;26.114;2023-02-22T08:03:12;100415.72;;;7.35;100.00
63190;BME280;49286;44.460;26.114;2023-02-22T08:05:44;100412.75;;;7.79;100.00
63190;BME280;49286;44.460;26.114;2023-02-22T08:08:11;100468.97;;;8.20;100.00
63190;BME280;49286;44.460;26.114;2023-02-22T08:10:36;100472.44;;;8.17;100.00
63190;BME280;49286;44.460;26.114;2023-02-22T08:13:03;100351.56;;;7.54;100.00
63190;BME280;49286;44.460;26.114;2023-02-22T08:15:37;100389.19;;;7.75;100.00
63190;BME280;49286;44.460;26.114;2023-02-22T08:18:05;100458.41;;;8.11;100.00
63190;BME280;49286;44.460;26.114;2023-02-22T08:20:34;100440.00;;;7.98;100.00
63190;BME280;49286;44.460;26.114;2023-02-22T08:22:59;100295.63;;;7.31;100.00
63190;BME280;49286;44.460;26.114;2023-02-22T08:25:27;100456.53;;;8.00;100.00
63190;BME280;49286;44.460;26.114;2023-02-22T08:28:01;100376.84;;;7.57;100.00
63190;BME280;49286;44.460;26.114;2023-02-22T08:30:28;100446.03;;;7.94;100.00
63190;BME280;49286;44.460;26.114;2023-02-22T08:32:55;100444.28;;;7.92;100.00
63190;BME280;49286;44.460;26.114;2023-02-22T08:35:22;100418.03;;;7.84;100.00
63190;BME280;49286;44.460;26.114;2023-02-22T08:37:51;100474.16;;;8.18;100.00
63190;BME280;49286;44.460;26.114;2023-02-22T08:40:21;100449.72;;;8.13;100.00
63190;BME280;49286;44.460;26.114;2023-02-22T08:42:47;100472.72;;;8.45;100.00
63190;BME280;49286;44.460;26.114;2023-02-22T08:45:14;100475.13;;;8.28;100.00
63190;BME280;49286;44.460;26.114;2023-02-22T08:47:39;100340.28;;;7.57;100.00
63190;BME280;49286;44.460;26.114;2023-02-22T08:50:06;100393.00;;;8.03;100.00
63190;BME280;49286;44.460;26.114;2023-02-22T08:52:32;100467.38;;;8.37;100.00
63190;BME280;49286;44.460;26.114;2023-02-22T08:54:57;100361.56;;;7.94;100.00
63190;BME280;49286;44.460;26.114;2023-02-22T08:57:23;100503.34;;;8.55;100.00
63190;BME280;49286;44.460;26.114;2023-02-22T08:59:48;100445.69;;;8.44;100.00
63190;BME280;49286;44.460;26.114;2023-02-22T09:02:16;100436.94;;;8.42;100.00
63190;BME280;49286;44.460;26.114;2023-02-22T09:04:42;100422.69;;;8.11;100.00
63190;BME280;49286;44.460;26.114;2023-02-22T09:07:08;100436.94;;;8.42;100.00
63190;BME280;49286;44.460;26.114;2023-02-22T09:09:33;100387.00;;;8.16;100.00
63190;BME280;49286;44.460;26.114;2023-02-22T09:12:00;100499.03;;;8.62;100.00
63190;BME280;49286;44.460;26.114;2023-02-22T09:14:27;100516.38;;;8.54;100.00
63190;BME280;49286;44.460;26.114;2023-02-22T09:16:52;100381.47;;;7.84;100.00
63190;BME280;49286;44.460;26.114;2023-02-22T09:19:18;100498.84;;;8.45;100.00
63190;BME280;49286;44.460;26.114;2023-02-22T09:21:43;100357.53;;;7.43;100.00
63190;BME280;49286;44.460;26.114;2023-02-22T09:24:09;100481.28;;;8.33;100.00
63190;BME280;49286;44.460;26.114;2023-02-22T09:26:36;100391.78;;;7.70;100.00
63190;BME280;49286;44.460;26.114;2023-02-22T09:29:05;100518.31;;;8.72;100.00
63190;BME280;49286;44.460;26.114;2023-02-22T09:31:37;100486.78;;;8.56;100.00
63190;BME280;49286;44.460;26.114;2023-02-22T09:34:04;100384.22;;;7.96;100.00
63190;BME280;49286;44.460;26.114;2023-02-22T09:36:43;100372.78;;;7.85;100.00
63190;BME280;49286;44.460;26.114;2023-02-22T09:39:11;100478.97;;;8.61;100.00
63190;BME280;49286;44.460;26.114;2023-02-22T09:42:08;100504.28;;;8.65;100.00
63190;BME280;49286;44.460;26.114;2023-02-22T09:44:43;100496.56;;;8.77;100.00
63190;BME280;49286;44.460;26.114;2023-02-22T09:47:32;100516.00;;;9.08;100.00
63190;BME280;49286;44.460;26.114;2023-02-22T09:50:08;100362.75;;;8.30;100.00
63190;BME280;49286;44.460;26.114;2023-02-22T09:53:11;100540.69;;;9.43;100.00
63190;BME280;49286;44.460;26.114;2023-02-22T09:55:48;100449.53;;;8.83;100.00
63190;BME280;49286;44.460;26.114;2023-02-22T09:58:19;100572.41;;;9.86;100.00
63190;BME280;49286;44.460;26.114;2023-02-22T10:00:48;100449.03;;;9.41;100.00
63190;BME280;49286;44.460;26.114;2023-02-22T10:06:11;100477.09;;;9.65;100.00
63190;BME280;49286;44.460;26.114;2023-02-22T10:08:40;100491.69;;;9.26;100.00
63190;BME280;49286;44.460;26.114;2023-02-22T10:16:40;100591.00;;;10.30;100.00
63190;BME280;49286;44.460;26.114;2023-02-22T10:24:52;100568.00;;;9.79;100.00
63190;BME280;49286;44.460;26.114;2023-02-22T10:27:20;100555.84;;;9.96;100.00
63190;BME280;49286;44.460;26.114;2023-02-22T10:29:53;100547.94;;;9.91;100.00
63190;BME280;49286;44.460;26.114;2023-02-22T10:32:26;100545.44;;;10.18;100.00
63190;BME280;49286;44.460;26.114;2023-02-22T10:34:55;100418.63;;;9.79;100.00
63190;BME280;49286;44.460;26.114;2023-02-22T10:37:23;100544.66;;;10.32;100.00
63190;BME280;49286;44.460;26.114;2023-02-22T10:39:52;100434.31;;;9.69;100.00
63190;BME280;49286;44.460;26.114;2023-02-22T10:42:21;100520.22;;;10.56;100.00
63190;BME280;49286;44.460;26.114;2023-02-22T10:44:49;100404.56;;;9.58;100.00
63190;BME280;49286;44.460;26.114;2023-02-22T10:47:16;100499.97;;;10.15;100.00
63190;BME280;49286;44.460;26.114;2023-02-22T10:49:48;100414.28;;;9.96;100.00
63190;BME280;49286;44.460;26.114;2023-02-22T10:52:26;100440.56;;;10.22;100.00
63190;BME280;49286;44.460;26.114;2023-02-22T10:54:54;100519.38;;;10.85;100.00
63190;BME280;49286;44.460;26.114;2023-02-22T10:57:25;100507.13;;;10.87;100.00
63190;BME280;49286;44.460;26.114;2023-02-22T10:59:51;100400.28;;;9.82;100.00
63190;BME280;49286;44.460;26.114;2023-02-22T11:02:28;100500.94;;;10.33;100.00
63190;BME280;49286;44.460;26.114;2023-02-22T11:04:56;100546.50;;;10.80;100.00
63190;BME280;49286;44.460;26.114;2023-02-22T11:07:34;100539.50;;;10.83;100.00
63190;BME280;49286;44.460;26.114;2023-02-22T11:10:02;100431.81;;;10.20;100.00
63190;BME280;49286;44.460;26.114;2023-02-22T11:12:33;100443.22;;;10.39;100.00
63190;BME280;49286;44.460;26.114;2023-02-22T11:17:45;100415.28;;;10.38;100.00
63190;BME280;49286;44.460;26.114;2023-02-22T11:20:27;100443.28;;;10.56;100.00
63190;BME280;49286;44.460;26.114;2023-02-22T11:23:02;100549.16;;;11.19;100.00
63190;BME280;49286;44.460;26.114;2023-02-22T11:25:31;100511.53;;;11.10;100.00
63190;BME280;49286;44.460;26.114;2023-02-22T11:30:40;100435.06;;;11.96;100.00
63190;BME280;49286;44.460;26.114;2023-02-22T11:33:20;100555.78;;;12.56;100.00
63190;BME280;49286;44.460;26.114;2023-02-22T11:35:59;100530.53;;;12.16;100.00
63190;BME280;49286;44.460;26.114;2023-02-22T11:38:33;100447.22;;;12.24;100.00
63190;BME280;49286;44.460;26.114;2023-02-22T11:41:13;100365.28;;;11.16;100.00
63190;BME280;49286;44.460;26.114;2023-02-22T11:43:40;100415.06;;;11.59;100.00
63190;BME280;49286;44.460;26.114;2023-02-22T11:46:15;100495.38;;;12.33;100.00
63190;BME280;49286;44.460;26.114;2023-02-22T11:54:31;100536.53;;;12.44;100.00
63190;BME280;49286;44.460;26.114;2023-02-22T12:03:42;100450.59;;;12.40;90.68
63190;BME280;49286;44.460;26.114;2023-02-22T12:14:40;100445.13;;;12.66;89.29
63190;BME280;49286;44.460;26.114;2023-02-22T12:19:46;100417.47;;;12.09;88.79
63190;BME280;49286;44.460;26.114;2023-02-22T12:22:27;100530.41;;;12.45;89.71
63190;BME280;49286;44.460;26.114;2023-02-22T12:24:59;100408.84;;;11.80;89.21
63190;BME280;49286;44.460;26.114;2023-02-22T12:27:31;100507.81;;;12.06;93.51
63190;BME280;49286;44.460;26.114;2023-02-22T12:30:19;100523.38;;;12.44;94.07
63190;BME280;49286;44.460;26.114;2023-02-22T12:32:52;100513.75;;;12.43;90.45
63190;BME280;49286;44.460;26.114;2023-02-22T12:35:36;100482.22;;;12.34;92.25
63190;BME280;49286;44.460;26.114;2023-02-22T12:43:32;100510.69;;;13.00;85.69
63190;BME280;49286;44.460;26.114;2023-02-22T12:49:08;100533.59;;;12.89;88.92
63190;BME280;49286;44.460;26.114;2023-02-22T12:54:17;100513.47;;;12.80;87.67
63190;BME280;49286;44.460;26.114;2023-02-22T12:56:54;100417.59;;;11.87;93.35
63190;BME280;49286;44.460;26.114;2023-02-22T13:02:26;100492.38;;;12.85;88.66
63190;BME280;49286;44.460;26.114;2023-02-22T13:04:48;100396.13;;;12.52;87.30
63190;BME280;49286;44.460;26.114;2023-02-22T13:15:35;100401.19;;;12.73;82.58
63190;BME280;49286;44.460;26.114;2023-02-22T13:18:59;100517.16;;;13.63;82.17
63190;BME280;49286;44.460;26.114;2023-02-22T13:21:28;100510.03;;;13.71;81.67
63190;BME280;49286;44.460;26.114;2023-02-22T13:24:01;100424.41;;;13.22;79.02
63190;BME280;49286;44.460;26.114;2023-02-22T13:26:46;100516.78;;;13.04;81.92
63190;BME280;49286;44.460;26.114;2023-02-22T13:29:19;100519.91;;;13.50;81.02
63190;BME280;49286;44.460;26.114;2023-02-22T13:32:03;100406.06;;;13.13;78.55
63190;BME280;49286;44.460;26.114;2023-02-22T13:42:52;100525.00;;;13.69;74.00
63190;BME280;49286;44.460;26.114;2023-02-22T13:48:05;100525.19;;;14.26;71.80
63190;BME280;49286;44.460;26.114;2023-02-22T13:53:11;100521.94;;;13.19;75.61
63190;BME280;49286;44.460;26.114;2023-02-22T13:55:40;100440.59;;;12.84;76.50
63190;BME280;49286;44.460;26.114;2023-02-22T13:58:09;100438.38;;;13.32;73.73
63190;BME280;49286;44.460;26.114;2023-02-22T14:13:32;100515.97;;;13.00;73.42
63190;BME280;49286;44.460;26.114;2023-02-22T14:16:25;100539.31;;;13.43;72.37
63190;BME280;49286;44.460;26.114;2023-02-22T14:19:03;100492.88;;;13.27;70.87
63190;BME280;49286;44.460;26.114;2023-02-22T14:21:32;100528.81;;;13.42;70.49
63190;BME280;49286;44.460;26.114;2023-02-22T14:24:10;100551.28;;;12.68;72.52
63190;BME280;49286;44.460;26.114;2023-02-22T14:26:38;100512.50;;;12.94;74.09
63190;BME280;49286;44.460;26.114;2023-02-22T14:34:09;100545.03;;;12.88;74.75
63190;BME280;49286;44.460;26.114;2023-02-22T14:37:02;100542.56;;;12.63;76.86
63190;BME280;49286;44.460;26.114;2023-02-22T14:42:18;100559.94;;;12.91;73.72
63190;BME280;49286;44.460;26.114;2023-02-22T14:44:56;100544.38;;;12.55;74.89
63190;BME280;49286;44.460;26.114;2023-02-22T14:47:28;100455.06;;;12.26;74.78
63190;BME280;49286;44.460;26.114;2023-02-22T14:50:04;100519.78;;;12.56;74.60
63190;BME280;49286;44.460;26.114;2023-02-22T14:52:34;100519.00;;;12.43;75.26
63190;BME280;49286;44.460;26.114;2023-02-22T14:55:18;100430.75;;;11.87;76.83
63190;BME280;49286;44.460;26.114;2023-02-22T14:57:50;100550.59;;;12.43;77.77
63190;BME280;49286;44.460;26.114;2023-02-22T15:00:26;100464.03;;;11.88;79.06
63190;BME280;49286;44.460;26.114;2023-02-22T15:02:57;100426.47;;;11.51;80.67
63190;BME280;49286;44.460;26.114;2023-02-22T15:05:24;100456.19;;;11.70;80.76
63190;BME280;49286;44.460;26.114;2023-02-22T15:07:59;100460.59;;;11.68;81.71
63190;BME280;49286;44.460;26.114;2023-02-22T15:13:05;100562.13;;;12.12;82.97